Neilston, United Kingdom
Current Conditions -  °F | °C
As of 9:50 AM on Sunday 21 Dec 2014 (Local Time) from EGPF Reporting Station
Light Rain Light Rain  
Wind Chill: 41°   Ceiling: 900
Heat Index: 48°   Visibility: 2.7mi
Dew Point: 46°   Wind: 23mph
Humidity: 93%   Direction: 220°SW
Pressure: 29.85"   Gusts: NA
Location:  55.79°N, 4.43°W
Report Text: EGPF 210950Z AUTO 22020KT 4400 -RA BKN009/// OVC035/// //////TCU 09/08 Q1011 RERA
Loading
Personal Weather Stations






























Interactive Weather Map New forecast layout! Learn more

10-Day Weather Forecast

Advertisements
Track Severe Weather on mobile